sensor_id;sensor_type;location;lat;lon;timestamp;pressure;altitude;pressure_sealevel;temperature;humidity
56912;BME280;42800;53.928;27.662;2024-03-06T00:01:53;99501.78;;;-1.44;100.00
56912;BME280;42800;53.928;27.662;2024-03-06T00:04:19;99487.72;;;-1.30;100.00
56912;BME280;42800;53.928;27.662;2024-03-06T00:06:45;99487.72;;;-1.25;100.00
56912;BME280;42800;53.928;27.662;2024-03-06T00:09:11;99449.34;;;-1.41;100.00
56912;BME280;42800;53.928;27.662;2024-03-06T00:11:37;99478.03;;;-1.26;100.00
56912;BME280;42800;53.928;27.662;2024-03-06T00:14:04;99442.19;;;-1.56;100.00
56912;BME280;42800;53.928;27.662;2024-03-06T00:16:30;99491.03;;;-1.44;100.00
56912;BME280;42800;53.928;27.662;2024-03-06T00:18:56;99513.38;;;-1.48;100.00
56912;BME280;42800;53.928;27.662;2024-03-06T00:21:22;99559.34;;;-1.39;100.00
56912;BME280;42800;53.928;27.662;2024-03-06T00:23:48;99547.25;;;-1.47;100.00
56912;BME280;42800;53.928;27.662;2024-03-06T00:26:14;99555.63;;;-1.54;100.00
56912;BME280;42800;53.928;27.662;2024-03-06T00:28:40;99555.34;;;-1.52;100.00
56912;BME280;42800;53.928;27.662;2024-03-06T00:31:06;99567.09;;;-1.33;100.00
56912;BME280;42800;53.928;27.662;2024-03-06T00:33:32;99560.44;;;-1.46;100.00
56912;BME280;42800;53.928;27.662;2024-03-06T00:35:58;99558.81;;;-1.42;100.00
56912;BME280;42800;53.928;27.662;2024-03-06T00:38:24;99572.78;;;-1.39;100.00
56912;BME280;42800;53.928;27.662;2024-03-06T00:40:50;99551.56;;;-1.46;100.00
56912;BME280;42800;53.928;27.662;2024-03-06T00:43:16;99574.72;;;-1.60;100.00
56912;BME280;42800;53.928;27.662;2024-03-06T00:45:42;99599.97;;;-1.51;100.00
56912;BME280;42800;53.928;27.662;2024-03-06T00:48:08;99609.94;;;-1.57;100.00
56912;BME280;42800;53.928;27.662;2024-03-06T00:50:34;99636.03;;;-1.57;100.00
56912;BME280;42800;53.928;27.662;2024-03-06T00:53:01;99637.34;;;-1.45;100.00
56912;BME280;42800;53.928;27.662;2024-03-06T00:55:27;99604.56;;;-1.57;100.00
56912;BME280;42800;53.928;27.662;2024-03-06T00:57:53;99618.25;;;-1.48;100.00
56912;BME280;42800;53.928;27.662;2024-03-06T01:00:19;99616.66;;;-1.54;100.00
56912;BME280;42800;53.928;27.662;2024-03-06T01:02:45;99634.69;;;-1.50;100.00
56912;BME280;42800;53.928;27.662;2024-03-06T01:05:12;99660.00;;;-1.81;100.00
56912;BME280;42800;53.928;27.662;2024-03-06T01:07:38;99699.22;;;-1.65;100.00
56912;BME280;42800;53.928;27.662;2024-03-06T01:10:05;99717.25;;;-1.71;100.00
56912;BME280;42800;53.928;27.662;2024-03-06T01:12:32;99737.16;;;-1.67;100.00
56912;BME280;42800;53.928;27.662;2024-03-06T01:14:57;99754.63;;;-1.69;100.00
56912;BME280;42800;53.928;27.662;2024-03-06T01:17:23;99782.84;;;-1.82;100.00
56912;BME280;42800;53.928;27.662;2024-03-06T01:19:49;99815.34;;;-1.78;100.00
56912;BME280;42800;53.928;27.662;2024-03-06T01:22:16;99805.41;;;-1.88;100.00
56912;BME280;42800;53.928;27.662;2024-03-06T01:24:42;99818.56;;;-1.81;100.00
56912;BME280;42800;53.928;27.662;2024-03-06T01:27:08;99831.44;;;-1.99;100.00
56912;BME280;42800;53.928;27.662;2024-03-06T01:29:34;99858.63;;;-1.85;100.00
56912;BME280;42800;53.928;27.662;2024-03-06T01:32:00;99865.59;;;-1.99;100.00
56912;BME280;42800;53.928;27.662;2024-03-06T01:34:26;99883.84;;;-2.01;100.00
56912;BME280;42800;53.928;27.662;2024-03-06T01:36:52;99908.78;;;-2.16;100.00
56912;BME280;42800;53.928;27.662;2024-03-06T01:39:19;99923.66;;;-1.93;100.00
56912;BME280;42800;53.928;27.662;2024-03-06T01:41:45;99937.53;;;-2.11;100.00
56912;BME280;42800;53.928;27.662;2024-03-06T01:44:12;99970.41;;;-1.89;100.00
56912;BME280;42800;53.928;27.662;2024-03-06T01:46:38;99937.06;;;-1.98;100.00
56912;BME280;42800;53.928;27.662;2024-03-06T01:49:04;99940.06;;;-1.90;100.00
56912;BME280;42800;53.928;27.662;2024-03-06T01:51:30;99929.59;;;-1.81;100.00
56912;BME280;42800;53.928;27.662;2024-03-06T01:53:56;99917.41;;;-2.04;100.00
56912;BME280;42800;53.928;27.662;2024-03-06T01:56:23;99949.69;;;-1.94;100.00
56912;BME280;42800;53.928;27.662;2024-03-06T01:58:50;99934.44;;;-1.83;100.00
56912;BME280;42800;53.928;27.662;2024-03-06T02:01:16;99888.72;;;-1.93;100.00
56912;BME280;42800;53.928;27.662;2024-03-06T02:03:43;99884.38;;;-1.94;100.00
56912;BME280;42800;53.928;27.662;2024-03-06T02:06:11;99910.34;;;-2.25;100.00
56912;BME280;42800;53.928;27.662;2024-03-06T02:08:39;99959.84;;;-2.11;100.00
56912;BME280;42800;53.928;27.662;2024-03-06T02:11:05;99977.84;;;-2.11;100.00
56912;BME280;42800;53.928;27.662;2024-03-06T02:13:33;99983.53;;;-2.03;100.00
56912;BME280;42800;53.928;27.662;2024-03-06T02:15:59;100010.34;;;-2.13;100.00
56912;BME280;42800;53.928;27.662;2024-03-06T02:18:25;100000.13;;;-2.11;100.00
56912;BME280;42800;53.928;27.662;2024-03-06T02:20:52;99995.13;;;-1.92;100.00
56912;BME280;42800;53.928;27.662;2024-03-06T02:23:17;99986.28;;;-1.87;100.00
56912;BME280;42800;53.928;27.662;2024-03-06T02:25:45;99959.13;;;-1.91;100.00
56912;BME280;42800;53.928;27.662;2024-03-06T02:28:12;99932.47;;;-1.98;100.00
56912;BME280;42800;53.928;27.662;2024-03-06T02:30:38;99949.44;;;-1.92;100.00
56912;BME280;42800;53.928;27.662;2024-03-06T02:33:04;99928.22;;;-1.83;100.00
56912;BME280;42800;53.928;27.662;2024-03-06T02:35:31;99896.22;;;-1.90;100.00
56912;BME280;42800;53.928;27.662;2024-03-06T02:37:59;99893.00;;;-1.92;100.00
56912;BME280;42800;53.928;27.662;2024-03-06T02:40:25;99909.13;;;-1.92;100.00
56912;BME280;42800;53.928;27.662;2024-03-06T02:42:51;99914.50;;;-1.87;100.00
56912;BME280;42800;53.928;27.662;2024-03-06T02:45:17;99898.66;;;-1.88;100.00
56912;BME280;42800;53.928;27.662;2024-03-06T02:47:44;99857.53;;;-1.89;100.00
56912;BME280;42800;53.928;27.662;2024-03-06T02:50:10;99848.69;;;-1.74;100.00
56912;BME280;42800;53.928;27.662;2024-03-06T02:52:36;99809.72;;;-1.82;100.00
56912;BME280;42800;53.928;27.662;2024-03-06T02:55:04;99836.59;;;-1.77;100.00
56912;BME280;42800;53.928;27.662;2024-03-06T02:57:30;99832.56;;;-1.90;100.00
56912;BME280;42800;53.928;27.662;2024-03-06T02:59:56;99845.16;;;-1.95;100.00
56912;BME280;42800;53.928;27.662;2024-03-06T03:02:22;99872.84;;;-1.95;100.00
56912;BME280;42800;53.928;27.662;2024-03-06T03:04:49;99868.56;;;-1.80;100.00
56912;BME280;42800;53.928;27.662;2024-03-06T03:07:15;99833.63;;;-1.85;100.00
56912;BME280;42800;53.928;27.662;2024-03-06T03:09:40;99833.88;;;-1.92;100.00
56912;BME280;42800;53.928;27.662;2024-03-06T03:12:07;99837.66;;;-1.78;100.00
56912;BME280;42800;53.928;27.662;2024-03-06T03:14:33;99796.00;;;-1.75;100.00
56912;BME280;42800;53.928;27.662;2024-03-06T03:16:59;99794.13;;;-1.85;100.00
56912;BME280;42800;53.928;27.662;2024-03-06T03:19:25;99812.69;;;-1.73;100.00
56912;BME280;42800;53.928;27.662;2024-03-06T03:21:51;99811.59;;;-1.72;100.00
56912;BME280;42800;53.928;27.662;2024-03-06T03:24:17;99803.00;;;-1.74;100.00
56912;BME280;42800;53.928;27.662;2024-03-06T03:26:45;99792.78;;;-1.67;100.00
56912;BME280;42800;53.928;27.662;2024-03-06T03:29:12;99779.84;;;-1.91;100.00
56912;BME280;42800;53.928;27.662;2024-03-06T03:31:38;99794.69;;;-1.62;100.00
56912;BME280;42800;53.928;27.662;2024-03-06T03:34:04;99749.22;;;-1.64;100.00
56912;BME280;42800;53.928;27.662;2024-03-06T03:36:30;99712.09;;;-1.42;100.00
56912;BME280;42800;53.928;27.662;2024-03-06T03:38:56;99678.25;;;-1.53;100.00
56912;BME280;42800;53.928;27.662;2024-03-06T03:41:21;99657.28;;;-1.71;100.00
56912;BME280;42800;53.928;27.662;2024-03-06T03:43:47;99637.41;;;-1.65;100.00
56912;BME280;42800;53.928;27.662;2024-03-06T03:46:15;99670.75;;;-1.66;100.00
56912;BME280;42800;53.928;27.662;2024-03-06T03:48:40;99676.91;;;-1.71;100.00
56912;BME280;42800;53.928;27.662;2024-03-06T03:51:06;99651.34;;;-1.58;100.00
56912;BME280;42800;53.928;27.662;2024-03-06T03:53:33;99643.56;;;-1.59;100.00
56912;BME280;42800;53.928;27.662;2024-03-06T03:55:59;99629.88;;;-1.68;100.00
56912;BME280;42800;53.928;27.662;2024-03-06T03:58:25;99614.56;;;-1.73;100.00
56912;BME280;42800;53.928;27.662;2024-03-06T04:00:51;99661.84;;;-1.56;100.00
56912;BME280;42800;53.928;27.662;2024-03-06T04:03:19;99597.63;;;-1.68;100.00
56912;BME280;42800;53.928;27.662;2024-03-06T04:05:46;99598.88;;;-1.50;100.00
56912;BME280;42800;53.928;27.662;2024-03-06T04:08:12;99578.78;;;-1.63;100.00
56912;BME280;42800;53.928;27.662;2024-03-06T04:10:38;99572.84;;;-1.50;100.00
56912;BME280;42800;53.928;27.662;2024-03-06T04:13:04;99563.13;;;-1.46;100.00
56912;BME280;42800;53.928;27.662;2024-03-06T04:15:31;99576.50;;;-1.30;100.00
56912;BME280;42800;53.928;27.662;2024-03-06T04:17:57;99509.09;;;-1.49;100.00
56912;BME280;42800;53.928;27.662;2024-03-06T04:20:24;99507.31;;;-1.69;100.00
56912;BME280;42800;53.928;27.662;2024-03-06T04:22:50;99528.75;;;-1.59;100.00
56912;BME280;42800;53.928;27.662;2024-03-06T04:25:16;99544.81;;;-1.44;100.00
56912;BME280;42800;53.928;27.662;2024-03-06T04:27:42;99522.09;;;-1.72;100.00
56912;BME280;42800;53.928;27.662;2024-03-06T04:30:09;99548.63;;;-1.55;100.00
56912;BME280;42800;53.928;27.662;2024-03-06T04:32:35;99549.44;;;-1.49;100.00
56912;BME280;42800;53.928;27.662;2024-03-06T04:35:01;99535.75;;;-1.58;100.00
56912;BME280;42800;53.928;27.662;2024-03-06T04:37:27;99531.78;;;-1.76;100.00
56912;BME280;42800;53.928;27.662;2024-03-06T04:39:54;99560.00;;;-1.73;100.00
56912;BME280;42800;53.928;27.662;2024-03-06T04:42:20;99567.25;;;-1.74;100.00
56912;BME280;42800;53.928;27.662;2024-03-06T04:44:46;99572.84;;;-1.55;100.00
56912;BME280;42800;53.928;27.662;2024-03-06T04:47:12;99515.88;;;-1.62;100.00
56912;BME280;42800;53.928;27.662;2024-03-06T04:49:38;99495.66;;;-1.49;100.00
56912;BME280;42800;53.928;27.662;2024-03-06T04:52:05;99456.19;;;-1.59;100.00
56912;BME280;42800;53.928;27.662;2024-03-06T04:54:32;99459.16;;;-1.66;100.00
56912;BME280;42800;53.928;27.662;2024-03-06T04:56:58;99484.41;;;-1.61;100.00
56912;BME280;42800;53.928;27.662;2024-03-06T04:59:24;99489.69;;;-1.41;100.00
56912;BME280;42800;53.928;27.662;2024-03-06T05:01:51;99449.94;;;-1.49;100.00
56912;BME280;42800;53.928;27.662;2024-03-06T05:04:17;99420.31;;;-1.88;100.00
56912;BME280;42800;53.928;27.662;2024-03-06T05:06:43;99487.50;;;-1.88;100.00
56912;BME280;42800;53.928;27.662;2024-03-06T05:09:09;99500.34;;;-1.75;100.00
56912;BME280;42800;53.928;27.662;2024-03-06T05:11:37;99472.06;;;-1.68;100.00
56912;BME280;42800;53.928;27.662;2024-03-06T05:14:03;99460.63;;;-1.39;100.00
56912;BME280;42800;53.928;27.662;2024-03-06T05:16:29;99413.16;;;-1.59;100.00
56912;BME280;42800;53.928;27.662;2024-03-06T05:18:55;99407.31;;;-1.32;100.00
56912;BME280;42800;53.928;27.662;2024-03-06T05:21:21;99391.59;;;-1.14;100.00
56912;BME280;42800;53.928;27.662;2024-03-06T05:23:48;99316.47;;;-1.11;100.00
56912;BME280;42800;53.928;27.662;2024-03-06T05:26:14;99278.44;;;-0.99;100.00
56912;BME280;42800;53.928;27.662;2024-03-06T05:28:41;99245.63;;;-1.25;100.00
56912;BME280;42800;53.928;27.662;2024-03-06T05:31:16;99257.78;;;-0.61;100.00
56912;BME280;42800;53.928;27.662;2024-03-06T05:33:43;99201.84;;;-0.45;100.00
56912;BME280;42800;53.928;27.662;2024-03-06T05:36:09;99160.06;;;-0.61;100.00
56912;BME280;42800;53.928;27.662;2024-03-06T05:38:35;99155.44;;;0.10;100.00
56912;BME280;42800;53.928;27.662;2024-03-06T05:41:01;99146.25;;;0.57;100.00
56912;BME280;42800;53.928;27.662;2024-03-06T05:43:27;99200.75;;;1.01;100.00
56912;BME280;42800;53.928;27.662;2024-03-06T05:45:54;99283.91;;;1.12;100.00
56912;BME280;42800;53.928;27.662;2024-03-06T05:48:20;99370.63;;;1.11;100.00
56912;BME280;42800;53.928;27.662;2024-03-06T05:50:46;99380.88;;;1.55;100.00
56912;BME280;42800;53.928;27.662;2024-03-06T05:53:12;99444.97;;;1.96;100.00
56912;BME280;42800;53.928;27.662;2024-03-06T05:55:38;99512.97;;;2.45;100.00
56912;BME280;42800;53.928;27.662;2024-03-06T05:58:04;99558.19;;;2.30;100.00
56912;BME280;42800;53.928;27.662;2024-03-06T06:00:31;99583.91;;;2.14;100.00
56912;BME280;42800;53.928;27.662;2024-03-06T06:02:57;99596.84;;;2.45;100.00
56912;BME280;42800;53.928;27.662;2024-03-06T06:05:23;99620.16;;;3.23;100.00
56912;BME280;42800;53.928;27.662;2024-03-06T06:07:49;99653.66;;;3.27;100.00
56912;BME280;42800;53.928;27.662;2024-03-06T06:10:16;99672.91;;;2.43;100.00
56912;BME280;42800;53.928;27.662;2024-03-06T06:12:41;99660.44;;;2.89;100.00
56912;BME280;42800;53.928;27.662;2024-03-06T06:15:09;99679.38;;;3.02;100.00
56912;BME280;42800;53.928;27.662;2024-03-06T06:17:35;99684.16;;;3.47;100.00
56912;BME280;42800;53.928;27.662;2024-03-06T06:20:01;99683.88;;;3.71;100.00
56912;BME280;42800;53.928;27.662;2024-03-06T06:22:28;99711.88;;;3.16;100.00
56912;BME280;42800;53.928;27.662;2024-03-06T06:24:53;99716.56;;;3.38;100.00
56912;BME280;42800;53.928;27.662;2024-03-06T06:27:21;99747.66;;;4.05;100.00
56912;BME280;42800;53.928;27.662;2024-03-06T06:29:46;99748.19;;;3.57;100.00
56912;BME280;42800;53.928;27.662;2024-03-06T06:32:12;99738.75;;;4.13;100.00
56912;BME280;42800;53.928;27.662;2024-03-06T06:34:38;99762.72;;;3.61;100.00
56912;BME280;42800;53.928;27.662;2024-03-06T06:37:05;99766.53;;;4.55;100.00
56912;BME280;42800;53.928;27.662;2024-03-06T06:39:31;99785.47;;;3.87;100.00
56912;BME280;42800;53.928;27.662;2024-03-06T06:41:59;99791.59;;;4.74;100.00
56912;BME280;42800;53.928;27.662;2024-03-06T06:44:25;99790.81;;;4.60;100.00
56912;BME280;42800;53.928;27.662;2024-03-06T06:46:51;99810.16;;;4.81;100.00
56912;BME280;42800;53.928;27.662;2024-03-06T06:49:17;99806.03;;;4.61;100.00
56912;BME280;42800;53.928;27.662;2024-03-06T06:51:44;99808.28;;;4.90;100.00
56912;BME280;42800;53.928;27.662;2024-03-06T06:54:11;99800.19;;;4.09;100.00
56912;BME280;42800;53.928;27.662;2024-03-06T06:56:37;99810.53;;;3.70;100.00
56912;BME280;42800;53.928;27.662;2024-03-06T06:59:04;99811.78;;;4.37;100.00
56912;BME280;42800;53.928;27.662;2024-03-06T07:01:30;99819.09;;;4.36;100.00
56912;BME280;42800;53.928;27.662;2024-03-06T07:03:55;99800.16;;;3.72;100.00
56912;BME280;42800;53.928;27.662;2024-03-06T07:06:21;99800.72;;;3.47;100.00
56912;BME280;42800;53.928;27.662;2024-03-06T07:08:47;99802.41;;;3.29;100.00
56912;BME280;42800;53.928;27.662;2024-03-06T07:11:16;99800.13;;;4.22;100.00
56912;BME280;42800;53.928;27.662;2024-03-06T07:13:42;99827.13;;;5.17;100.00
56912;BME280;42800;53.928;27.662;2024-03-06T07:16:08;99847.56;;;4.84;100.00
56912;BME280;42800;53.928;27.662;2024-03-06T07:18:34;99838.47;;;4.66;100.00
56912;BME280;42800;53.928;27.662;2024-03-06T07:21:00;99845.50;;;4.89;100.00
56912;BME280;42800;53.928;27.662;2024-03-06T07:23:26;99838.78;;;4.42;100.00
56912;BME280;42800;53.928;27.662;2024-03-06T07:25:52;99832.44;;;4.69;100.00
56912;BME280;42800;53.928;27.662;2024-03-06T07:28:19;99848.47;;;3.84;100.00
56912;BME280;42800;53.928;27.662;2024-03-06T07:30:46;99847.28;;;3.63;100.00
56912;BME280;42800;53.928;27.662;2024-03-06T07:33:12;99832.75;;;4.09;100.00
56912;BME280;42800;53.928;27.662;2024-03-06T07:35:39;99831.56;;;4.01;100.00
56912;BME280;42800;53.928;27.662;2024-03-06T07:38:05;99843.13;;;4.65;100.00
56912;BME280;42800;53.928;27.662;2024-03-06T07:40:31;99832.34;;;2.91;100.00
56912;BME280;42800;53.928;27.662;2024-03-06T07:42:57;99825.00;;;3.38;100.00
56912;BME280;42800;53.928;27.662;2024-03-06T07:45:24;99833.09;;;3.11;100.00
56912;BME280;42800;53.928;27.662;2024-03-06T07:47:50;99800.63;;;2.26;100.00
56912;BME280;42800;53.928;27.662;2024-03-06T07:50:16;99803.19;;;3.29;100.00
56912;BME280;42800;53.928;27.662;2024-03-06T07:52:44;99804.53;;;2.72;100.00
56912;BME280;42800;53.928;27.662;2024-03-06T07:55:10;99794.47;;;3.33;100.00
56912;BME280;42800;53.928;27.662;2024-03-06T07:57:36;99815.31;;;3.04;100.00
56912;BME280;42800;53.928;27.662;2024-03-06T08:00:03;99822.66;;;3.04;100.00
56912;BME280;42800;53.928;27.662;2024-03-06T08:02:34;99839.00;;;3.13;100.00
56912;BME280;42800;53.928;27.662;2024-03-06T08:05:00;99833.97;;;3.06;100.00
56912;BME280;42800;53.928;27.662;2024-03-06T08:07:26;99841.09;;;3.02;100.00
56912;BME280;42800;53.928;27.662;2024-03-06T08:09:52;99839.31;;;3.11;100.00
56912;BME280;42800;53.928;27.662;2024-03-06T08:12:19;99849.94;;;3.08;100.00
56912;BME280;42800;53.928;27.662;2024-03-06T08:14:45;99851.19;;;3.29;100.00
56912;BME280;42800;53.928;27.662;2024-03-06T08:17:11;99871.50;;;4.37;100.00
56912;BME280;42800;53.928;27.662;2024-03-06T08:19:37;99879.28;;;4.52;100.00
56912;BME280;42800;53.928;27.662;2024-03-06T08:22:04;99883.59;;;5.21;100.00
56912;BME280;42800;53.928;27.662;2024-03-06T08:24:29;99897.00;;;5.17;100.00
56912;BME280;42800;53.928;27.662;2024-03-06T08:26:55;99882.81;;;4.98;100.00
56912;BME280;42800;53.928;27.662;2024-03-06T08:29:22;99889.16;;;4.48;100.00
56912;BME280;42800;53.928;27.662;2024-03-06T08:31:48;99904.47;;;4.89;100.00
56912;BME280;42800;53.928;27.662;2024-03-06T08:34:14;99889.41;;;5.68;99.16
56912;BME280;42800;53.928;27.662;2024-03-06T08:36:42;99890.59;;;6.93;95.81
56912;BME280;42800;53.928;27.662;2024-03-06T08:39:08;99903.88;;;6.86;84.28
56912;BME280;42800;53.928;27.662;2024-03-06T08:41:37;99902.59;;;6.49;82.55
56912;BME280;42800;53.928;27.662;2024-03-06T08:44:04;99902.44;;;6.63;81.72
56912;BME280;42800;53.928;27.662;2024-03-06T08:46:30;99901.66;;;5.16;83.97
56912;BME280;42800;53.928;27.662;2024-03-06T08:48:56;99904.94;;;5.36;85.94
56912;BME280;42800;53.928;27.662;2024-03-06T08:51:22;99903.59;;;4.80;90.13
56912;BME280;42800;53.928;27.662;2024-03-06T08:53:48;99899.16;;;4.25;88.60
56912;BME280;42800;53.928;27.662;2024-03-06T08:56:14;99893.31;;;4.32;91.05
56912;BME280;42800;53.928;27.662;2024-03-06T08:58:40;99895.69;;;5.37;89.75
56912;BME280;42800;53.928;27.662;2024-03-06T09:01:06;99900.38;;;5.23;82.92
56912;BME280;42800;53.928;27.662;2024-03-06T09:03:32;99895.72;;;5.46;82.98
56912;BME280;42800;53.928;27.662;2024-03-06T09:05:58;99886.06;;;5.79;83.48
56912;BME280;42800;53.928;27.662;2024-03-06T09:08:25;99880.88;;;4.53;79.31
56912;BME280;42800;53.928;27.662;2024-03-06T09:10:51;99893.25;;;4.09;87.98
56912;BME280;42800;53.928;27.662;2024-03-06T09:13:17;99890.72;;;4.27;87.30
56912;BME280;42800;53.928;27.662;2024-03-06T09:15:43;99895.03;;;4.86;84.48
56912;BME280;42800;53.928;27.662;2024-03-06T09:18:09;99887.94;;;5.61;78.04
56912;BME280;42800;53.928;27.662;2024-03-06T09:20:35;99892.13;;;6.16;73.84
56912;BME280;42800;53.928;27.662;2024-03-06T09:23:01;99898.03;;;6.01;70.65
56912;BME280;42800;53.928;27.662;2024-03-06T09:25:26;99898.50;;;4.78;74.03
56912;BME280;42800;53.928;27.662;2024-03-06T09:27:54;99896.50;;;5.15;78.10
56912;BME280;42800;53.928;27.662;2024-03-06T09:30:20;99897.13;;;4.31;75.20
56912;BME280;42800;53.928;27.662;2024-03-06T09:32:46;99897.81;;;4.00;79.43
56912;BME280;42800;53.928;27.662;2024-03-06T09:35:12;99907.00;;;4.85;78.41
56912;BME280;42800;53.928;27.662;2024-03-06T09:37:39;99910.81;;;5.29;74.53
56912;BME280;42800;53.928;27.662;2024-03-06T09:40:07;99911.47;;;4.81;77.10
56912;BME280;42800;53.928;27.662;2024-03-06T09:42:34;99910.97;;;4.57;75.83
56912;BME280;42800;53.928;27.662;2024-03-06T09:45:00;99914.69;;;4.83;73.75
56912;BME280;42800;53.928;27.662;2024-03-06T09:47:28;99904.16;;;4.68;72.50
56912;BME280;42800;53.928;27.662;2024-03-06T09:49:57;99916.66;;;4.19;73.79
56912;BME280;42800;53.928;27.662;2024-03-06T09:52:24;99902.44;;;4.72;75.12
56912;BME280;42800;53.928;27.662;2024-03-06T09:54:50;99918.44;;;5.50;72.80
56912;BME280;42800;53.928;27.662;2024-03-06T09:57:17;99915.53;;;5.77;69.40
56912;BME280;42800;53.928;27.662;2024-03-06T09:59:43;99915.66;;;5.72;68.71
56912;BME280;42800;53.928;27.662;2024-03-06T10:02:32;99919.56;;;5.80;68.51
56912;BME280;42800;53.928;27.662;2024-03-06T10:05:00;99930.22;;;5.68;68.06
56912;BME280;42800;53.928;27.662;2024-03-06T10:07:26;99922.59;;;5.47;68.84
56912;BME280;42800;53.928;27.662;2024-03-06T10:09:52;99916.38;;;5.47;69.02
56912;BME280;42800;53.928;27.662;2024-03-06T10:12:18;99917.13;;;5.16;69.93
56912;BME280;42800;53.928;27.662;2024-03-06T10:14:49;99905.56;;;5.33;70.79
56912;BME280;42800;53.928;27.662;2024-03-06T10:17:19;99911.91;;;4.75;72.52
56912;BME280;42800;53.928;27.662;2024-03-06T10:19:45;99909.31;;;4.92;74.09
56912;BME280;42800;53.928;27.662;2024-03-06T10:22:16;99908.34;;;5.19;73.87
56912;BME280;42800;53.928;27.662;2024-03-06T10:24:42;99903.59;;;5.56;73.94
56912;BME280;42800;53.928;27.662;2024-03-06T10:27:08;99899.28;;;5.95;71.97
56912;BME280;42800;53.928;27.662;2024-03-06T10:29:39;99897.69;;;5.62;71.66
56912;BME280;42800;53.928;27.662;2024-03-06T10:32:06;99906.28;;;5.47;69.71
56912;BME280;42800;53.928;27.662;2024-03-06T10:34:33;99906.84;;;5.98;70.84
56912;BME280;42800;53.928;27.662;2024-03-06T10:37:01;99894.41;;;5.83;70.60
56912;BME280;42800;53.928;27.662;2024-03-06T10:39:30;99906.00;;;6.63;70.02
56912;BME280;42800;53.928;27.662;2024-03-06T10:41:57;99894.09;;;6.42;69.11
56912;BME280;42800;53.928;27.662;2024-03-06T10:44:24;99898.09;;;6.27;68.85
56912;BME280;42800;53.928;27.662;2024-03-06T10:46:55;99899.25;;;6.43;68.71
56912;BME280;42800;53.928;27.662;2024-03-06T10:49:23;99890.25;;;6.17;69.04
56912;BME280;42800;53.928;27.662;2024-03-06T10:51:51;99904.63;;;5.69;71.94
56912;BME280;42800;53.928;27.662;2024-03-06T10:54:18;99896.75;;;5.27;71.33
56912;BME280;42800;53.928;27.662;2024-03-06T10:56:45;99887.28;;;5.56;72.66
56912;BME280;42800;53.928;27.662;2024-03-06T10:59:11;99888.31;;;6.26;72.96
56912;BME280;42800;53.928;27.662;2024-03-06T11:01:39;99912.06;;;5.54;70.87
56912;BME280;42800;53.928;27.662;2024-03-06T11:04:06;99904.84;;;4.96;72.27
56912;BME280;42800;53.928;27.662;2024-03-06T11:06:36;99896.78;;;6.07;72.73
56912;BME280;42800;53.928;27.662;2024-03-06T11:09:04;99901.91;;;6.17;69.94
56912;BME280;42800;53.928;27.662;2024-03-06T11:11:31;99899.16;;;5.69;69.03
56912;BME280;42800;53.928;27.662;2024-03-06T11:14:01;99897.94;;;5.12;70.95
56912;BME280;42800;53.928;27.662;2024-03-06T11:16:28;99898.59;;;5.80;73.62
56912;BME280;42800;53.928;27.662;2024-03-06T11:19:04;99894.97;;;5.62;73.92
56912;BME280;42800;53.928;27.662;2024-03-06T11:21:32;99887.66;;;5.72;74.62
56912;BME280;42800;53.928;27.662;2024-03-06T11:24:15;99904.38;;;5.48;72.62
56912;BME280;42800;53.928;27.662;2024-03-06T11:26:43;99898.47;;;5.54;72.16
56912;BME280;42800;53.928;27.662;2024-03-06T11:29:09;99896.78;;;5.36;74.13
56912;BME280;42800;53.928;27.662;2024-03-06T11:31:35;99889.50;;;5.23;72.93
56912;BME280;42800;53.928;27.662;2024-03-06T11:34:04;99892.56;;;4.76;72.88
56912;BME280;42800;53.928;27.662;2024-03-06T11:36:30;99893.13;;;4.87;76.08
56912;BME280;42800;53.928;27.662;2024-03-06T11:38:57;99878.06;;;4.22;79.26
56912;BME280;42800;53.928;27.662;2024-03-06T11:41:26;99879.22;;;4.30;80.15
56912;BME280;42800;53.928;27.662;2024-03-06T11:43:54;99873.56;;;4.04;85.32
56912;BME280;42800;53.928;27.662;2024-03-06T11:46:21;99873.69;;;3.85;85.54
56912;BME280;42800;53.928;27.662;2024-03-06T11:48:53;99877.09;;;3.90;87.09
56912;BME280;42800;53.928;27.662;2024-03-06T11:51:20;99872.03;;;4.11;87.00
56912;BME280;42800;53.928;27.662;2024-03-06T11:53:52;99870.44;;;4.10;84.68
56912;BME280;42800;53.928;27.662;2024-03-06T11:56:19;99857.91;;;4.00;85.44
56912;BME280;42800;53.928;27.662;2024-03-06T11:58:46;99853.28;;;4.01;87.52
56912;BME280;42800;53.928;27.662;2024-03-06T12:01:13;99869.00;;;4.13;87.66
56912;BME280;42800;53.928;27.662;2024-03-06T12:03:39;99869.00;;;4.27;85.08
56912;BME280;42800;53.928;27.662;2024-03-06T12:06:06;99876.88;;;3.73;86.10
56912;BME280;42800;53.928;27.662;2024-03-06T12:08:33;99875.91;;;3.55;89.42
56912;BME280;42800;53.928;27.662;2024-03-06T12:11:02;99862.72;;;4.04;94.03
56912;BME280;42800;53.928;27.662;2024-03-06T12:13:29;99860.81;;;3.76;90.00
56912;BME280;42800;53.928;27.662;2024-03-06T12:15:56;99861.22;;;3.28;87.98
56912;BME280;42800;53.928;27.662;2024-03-06T12:18:24;99863.72;;;3.39;87.61
56912;BME280;42800;53.928;27.662;2024-03-06T12:20:50;99866.59;;;3.01;92.19
56912;BME280;42800;53.928;27.662;2024-03-06T12:23:20;99861.63;;;2.89;95.81
56912;BME280;42800;53.928;27.662;2024-03-06T12:25:48;99856.38;;;3.25;96.61
56912;BME280;42800;53.928;27.662;2024-03-06T12:28:14;99843.84;;;3.29;98.20
56912;BME280;42800;53.928;27.662;2024-03-06T12:30:41;99856.22;;;3.91;100.00
56912;BME280;42800;53.928;27.662;2024-03-06T12:33:08;99845.84;;;3.79;100.00
56912;BME280;42800;53.928;27.662;2024-03-06T12:35:36;99854.13;;;3.60;97.46
56912;BME280;42800;53.928;27.662;2024-03-06T12:38:11;99849.69;;;3.64;95.54
56912;BME280;42800;53.928;27.662;2024-03-06T12:40:38;99854.56;;;3.90;96.51
56912;BME280;42800;53.928;27.662;2024-03-06T12:43:04;99836.84;;;3.70;98.42
56912;BME280;42800;53.928;27.662;2024-03-06T12:45:30;99841.16;;;3.71;95.26